Bridge of Weir, United Kingdom
Current Conditions -  °F | °C
As of 2:20 AM on Saturday 25 Oct 2014 (Local Time) from EGPF Reporting Station
Scattered Clouds Scattered Clouds  
Wind Chill: 50°   Ceiling: Unl
Heat Index: 50°   Visibility: 6mi
Dew Point: 46°   Wind: 17mph
Humidity: 87%   Direction: 230°SW
Pressure: 29.71"   Gusts: NA
Location:  55.85°N, 4.58°W
Report Text: EGPF 250120Z AUTO 23015KT 9999 FEW020 SCT047 10/08 Q1006
Loading
Personal Weather Stations






























Interactive Weather Map
Tropical Storm Tracking
New forecast layout! Learn more

10-Day Weather Forecast

Advertisements
Track Severe Weather on mobile